createdAt,value
2022-12-26T00:00:19.783Z,7.28
2022-12-26T00:02:46.335Z,6.68
2022-12-26T00:05:12.806Z,7.95
2022-12-26T00:07:39.132Z,7.53
2022-12-26T00:10:06.049Z,8.07
2022-12-26T00:12:32.477Z,7.22
2022-12-26T00:14:58.981Z,8.82
2022-12-26T00:17:25.360Z,7.25
2022-12-26T00:19:51.731Z,7.53
2022-12-26T00:22:18.334Z,8.48
2022-12-26T00:24:44.767Z,7.78
2022-12-26T00:27:11.258Z,6.20
2022-12-26T00:29:37.703Z,6.65
2022-12-26T00:32:04.297Z,6.50
2022-12-26T00:34:30.766Z,6.28
2022-12-26T00:36:57.157Z,6.72
2022-12-26T00:39:23.666Z,7.18
2022-12-26T00:41:50.102Z,6.75
2022-12-26T00:44:16.671Z,6.40
2022-12-26T00:46:43.320Z,5.65
2022-12-26T00:49:09.765Z,6.00
2022-12-26T00:51:36.137Z,7.38
2022-12-26T00:54:02.551Z,6.40
2022-12-26T00:56:28.993Z,7.07
2022-12-26T00:58:55.424Z,6.80
2022-12-26T01:01:23.497Z,7.45
2022-12-26T01:03:50.872Z,7.68
2022-12-26T01:06:17.491Z,7.97
2022-12-26T01:08:44.060Z,7.07
2022-12-26T01:11:12.744Z,8.80
2022-12-26T01:13:39.383Z,8.07
2022-12-26T01:16:07.021Z,7.82
2022-12-26T01:18:34.314Z,6.15
2022-12-26T01:21:06.762Z,8.68
2022-12-26T01:23:33.276Z,5.95
2022-12-26T01:26:18.455Z,6.60
2022-12-26T01:28:48.362Z,6.43
2022-12-26T01:31:14.812Z,7.18
2022-12-26T01:33:41.348Z,6.88
2022-12-26T01:36:07.886Z,8.48
2022-12-26T01:38:34.302Z,9.43
2022-12-26T01:41:19.813Z,8.43
2022-12-26T01:44:00.657Z,6.00
2022-12-26T01:46:34.331Z,6.43
2022-12-26T01:49:06.748Z,5.70
2022-12-26T01:51:36.957Z,6.57
2022-12-26T01:54:40.897Z,9.40
2022-12-26T01:56:52.136Z,8.50
2022-12-26T01:59:22.195Z,6.72
2022-12-26T02:01:50.215Z,7.20
2022-12-26T02:04:39.097Z,7.22
2022-12-26T02:07:05.860Z,7.53
2022-12-26T02:09:32.520Z,5.18
2022-12-26T02:12:36.184Z,5.97
2022-12-26T02:14:50.370Z,5.93
2022-12-26T02:17:17.365Z,6.13
2022-12-26T02:19:55.953Z,6.40
2022-12-26T02:22:47.665Z,6.13
2022-12-26T02:25:41.199Z,10.43
2022-12-26T02:28:31.531Z,7.10
2022-12-26T02:31:19.372Z,5.05
2022-12-26T02:33:58.987Z,5.10
2022-12-26T02:36:32.586Z,6.45
2022-12-26T02:39:42.605Z,5.07
2022-12-26T02:42:27.988Z,6.50
2022-12-26T02:45:21.280Z,6.18
2022-12-26T02:48:20.235Z,5.93
2022-12-26T02:51:21.484Z,6.68
2022-12-26T02:54:30.937Z,8.82
2022-12-26T02:57:18.463Z,7.53
2022-12-26T03:00:12.808Z,5.72
2022-12-26T03:03:33.307Z,6.22
2022-12-26T03:06:22.890Z,5.57
2022-12-26T03:09:11.629Z,6.43
2022-12-26T03:11:59.070Z,6.13
2022-12-26T03:14:28.933Z,6.18
2022-12-26T03:17:20.938Z,5.00
2022-12-26T03:20:10.316Z,5.47
2022-12-26T03:23:03.619Z,5.18
2022-12-26T03:25:57.812Z,6.07
2022-12-26T03:28:24.560Z,7.18
2022-12-26T03:30:52.092Z,5.65
2022-12-26T03:33:43.010Z,5.38
2022-12-26T03:36:15.902Z,4.70
2022-12-26T03:39:07.414Z,4.35
2022-12-26T03:42:11.629Z,7.10
2022-12-26T03:45:07.508Z,6.70
2022-12-26T03:47:59.095Z,5.85
2022-12-26T03:50:59.125Z,5.32
2022-12-26T03:53:50.303Z,6.65
2022-12-26T03:56:44.773Z,6.10
2022-12-26T03:59:32.341Z,5.90
2022-12-26T04:02:25.317Z,6.90
2022-12-26T04:05:12.787Z,5.68
2022-12-26T04:08:02.159Z,6.82
2022-12-26T04:10:55.501Z,4.28
2022-12-26T04:13:46.398Z,4.75
2022-12-26T04:16:44.350Z,4.63
2022-12-26T04:19:48.134Z,4.70
2022-12-26T04:22:36.031Z,6.47
2022-12-26T04:25:49.761Z,5.00
2022-12-26T04:28:35.974Z,6.18
2022-12-26T04:31:26.144Z,5.43
2022-12-26T04:34:16.504Z,4.82
2022-12-26T04:37:05.450Z,5.40
2022-12-26T04:39:52.668Z,9.48
2022-12-26T04:42:38.320Z,4.90
2022-12-26T04:45:05.859Z,5.07
2022-12-26T04:47:32.886Z,7.10
2022-12-26T04:50:11.659Z,6.03
2022-12-26T04:52:57.857Z,5.63
2022-12-26T04:55:26.483Z,5.32
2022-12-26T04:57:52.900Z,5.00
2022-12-26T05:00:19.592Z,5.22
2022-12-26T05:03:04.480Z,4.90
2022-12-26T05:06:12.925Z,5.47
2022-12-26T05:09:03.051Z,8.77
2022-12-26T05:11:30.931Z,5.40
2022-12-26T05:13:58.153Z,6.05
2022-12-26T05:16:44.541Z,3.63
2022-12-26T05:19:30.661Z,8.48
2022-12-26T05:22:16.472Z,4.38
2022-12-26T05:25:02.899Z,4.70
2022-12-26T05:28:01.598Z,6.38
2022-12-26T05:30:28.570Z,5.40
2022-12-26T05:33:13.482Z,7.35
2022-12-26T05:35:40.157Z,6.93
2022-12-26T05:38:06.795Z,5.57
2022-12-26T05:40:33.129Z,6.10
2022-12-26T05:43:00.320Z,6.90
2022-12-26T05:45:27.676Z,5.35
2022-12-26T05:48:01.081Z,6.63
2022-12-26T05:50:27.702Z,7.35
2022-12-26T05:52:56.658Z,4.88
2022-12-26T05:55:24.277Z,5.95
2022-12-26T05:57:51.245Z,6.10
2022-12-26T06:00:17.716Z,6.45
2022-12-26T06:02:44.193Z,6.20
2022-12-26T06:05:10.681Z,6.85
2022-12-26T06:07:37.626Z,9.27
2022-12-26T06:10:06.292Z,5.55
2022-12-26T06:12:33.839Z,3.97
2022-12-26T06:15:00.221Z,3.88
2022-12-26T06:17:26.727Z,3.92
2022-12-26T06:19:53.329Z,5.30
2022-12-26T06:22:19.692Z,5.38
2022-12-26T06:24:46.021Z,5.95
2022-12-26T06:27:12.342Z,4.90
2022-12-26T06:29:38.677Z,7.47
2022-12-26T06:32:05.370Z,5.00
2022-12-26T06:34:31.826Z,6.13
2022-12-26T06:36:58.225Z,8.13
2022-12-26T06:39:24.750Z,5.00
2022-12-26T06:41:51.177Z,5.53
2022-12-26T06:44:18.754Z,5.78
2022-12-26T06:46:45.633Z,5.95
2022-12-26T06:49:12.011Z,6.15
2022-12-26T06:51:38.384Z,5.50
2022-12-26T06:54:04.938Z,6.93
2022-12-26T06:56:32.345Z,6.15
2022-12-26T06:59:00.904Z,10.15
2022-12-26T07:01:28.666Z,4.25
2022-12-26T07:03:55.591Z,9.10
2022-12-26T07:06:25.831Z,6.95
2022-12-26T07:08:54.003Z,5.90
2022-12-26T07:11:22.750Z,8.30
2022-12-26T07:13:49.129Z,9.43
2022-12-26T07:16:15.508Z,4.78
2022-12-26T07:18:41.986Z,5.50
2022-12-26T07:21:10.090Z,6.10
2022-12-26T07:23:36.763Z,7.15
2022-12-26T07:26:03.824Z,5.32
2022-12-26T07:28:30.378Z,6.05
2022-12-26T07:30:57.573Z,4.07
2022-12-26T07:33:23.952Z,5.90
2022-12-26T07:35:50.345Z,4.55
2022-12-26T07:38:17.274Z,7.45
2022-12-26T07:40:43.631Z,5.03
2022-12-26T07:43:09.978Z,7.93
2022-12-26T07:45:41.860Z,7.78
2022-12-26T07:48:11.584Z,7.45
2022-12-26T07:50:37.939Z,7.55
2022-12-26T07:53:04.568Z,9.10
2022-12-26T07:55:30.907Z,6.50
2022-12-26T07:57:57.235Z,8.13
2022-12-26T08:00:23.648Z,4.80
2022-12-26T08:02:51.060Z,6.03
2022-12-26T08:05:18.033Z,5.75
2022-12-26T08:07:47.300Z,7.68
2022-12-26T08:10:13.738Z,11.25
2022-12-26T08:12:40.210Z,7.18
2022-12-26T08:15:07.139Z,6.28
2022-12-26T08:17:33.624Z,9.93
2022-12-26T08:20:00.003Z,8.27
2022-12-26T08:22:27.042Z,5.43
2022-12-26T08:24:53.398Z,5.07
2022-12-26T08:27:19.776Z,4.15
2022-12-26T08:29:47.499Z,4.75
2022-12-26T08:32:13.822Z,4.95
2022-12-26T08:34:40.191Z,8.05
2022-12-26T08:37:07.665Z,9.23
2022-12-26T08:39:34.014Z,7.95
2022-12-26T08:42:00.331Z,8.43
2022-12-26T08:44:28.011Z,9.40
2022-12-26T08:46:54.995Z,8.35
2022-12-26T08:49:21.358Z,9.45
2022-12-26T08:51:47.722Z,9.38
2022-12-26T08:54:14.129Z,6.75
2022-12-26T08:56:40.502Z,8.32
2022-12-26T08:59:07.795Z,8.68
2022-12-26T09:01:34.369Z,7.05
2022-12-26T09:04:02.975Z,7.20
2022-12-26T09:06:32.093Z,6.45
2022-12-26T09:08:59.629Z,7.65
2022-12-26T09:11:26.851Z,6.15
2022-12-26T09:13:53.839Z,7.45
2022-12-26T09:16:22.745Z,9.38
2022-12-26T09:18:53.823Z,5.22
2022-12-26T09:21:20.209Z,6.68
2022-12-26T09:23:46.574Z,7.00
2022-12-26T09:26:15.081Z,7.13
2022-12-26T09:28:41.954Z,7.40
2022-12-26T09:31:15.193Z,9.38
2022-12-26T09:33:41.983Z,7.07
2022-12-26T09:36:14.510Z,8.70
2022-12-26T09:38:42.370Z,7.05
2022-12-26T09:41:20.929Z,5.70
2022-12-26T09:44:22.363Z,8.90
2022-12-26T09:47:04.659Z,9.20
2022-12-26T09:49:33.680Z,7.32
2022-12-26T09:52:04.746Z,8.05
2022-12-26T09:54:37.898Z,7.15
2022-12-26T09:57:17.349Z,5.43
2022-12-26T09:59:49.019Z,5.10
2022-12-26T10:02:20.576Z,5.35
2022-12-26T10:04:47.687Z,8.15
2022-12-26T10:07:21.983Z,9.30
2022-12-26T10:09:56.279Z,7.93
2022-12-26T10:12:41.461Z,7.13
2022-12-26T10:15:13.761Z,4.65
2022-12-26T10:18:08.920Z,7.45
2022-12-26T10:20:49.326Z,10.45
2022-12-26T10:23:27.451Z,9.75
2022-12-26T10:25:58.762Z,5.28
2022-12-26T10:28:52.353Z,6.55
2022-12-26T10:31:30.884Z,7.15
2022-12-26T10:34:08.163Z,5.72
2022-12-26T10:36:37.555Z,7.88
2022-12-26T10:39:06.085Z,5.93
2022-12-26T10:41:42.983Z,6.35
2022-12-26T10:44:12.185Z,7.55
2022-12-26T10:46:59.764Z,5.60
2022-12-26T10:49:26.814Z,6.80
2022-12-26T10:51:55.905Z,5.53
2022-12-26T10:54:22.405Z,4.65
2022-12-26T10:56:51.352Z,4.43
2022-12-26T10:59:21.091Z,3.75
2022-12-26T11:01:48.276Z,5.20
2022-12-26T11:04:44.414Z,4.95
2022-12-26T11:07:11.474Z,3.10
2022-12-26T11:09:40.416Z,3.72
2022-12-26T11:12:21.790Z,4.38
2022-12-26T11:14:48.516Z,4.10
2022-12-26T11:17:25.695Z,3.97
2022-12-26T11:20:15.211Z,4.07
2022-12-26T11:22:43.009Z,2.67
2022-12-26T11:25:09.280Z,3.65
2022-12-26T11:27:40.988Z,2.92
2022-12-26T11:30:13.609Z,4.07
2022-12-26T11:32:41.520Z,3.30
2022-12-26T11:35:21.197Z,3.15
2022-12-26T11:37:51.716Z,3.10
2022-12-26T11:41:03.680Z,2.80
2022-12-26T11:43:30.957Z,2.80
2022-12-26T11:45:57.295Z,3.42
2022-12-26T11:48:25.183Z,2.63
2022-12-26T11:50:51.841Z,2.45
2022-12-26T11:53:20.313Z,2.70
2022-12-26T11:56:00.668Z,1.90
2022-12-26T11:58:29.828Z,2.20
2022-12-26T12:00:59.064Z,2.63
2022-12-26T12:03:32.586Z,2.05
2022-12-26T12:06:41.639Z,2.00
2022-12-26T12:09:14.031Z,1.90
2022-12-26T12:11:46.444Z,3.88
2022-12-26T12:14:39.042Z,1.88
2022-12-26T12:17:14.682Z,2.42
2022-12-26T12:19:47.131Z,3.38
2022-12-26T12:22:31.931Z,3.38
2022-12-26T12:25:20.093Z,2.45
2022-12-26T12:28:04.049Z,2.13
2022-12-26T12:31:01.132Z,2.45
2022-12-26T12:33:49.281Z,3.15
2022-12-26T12:36:24.830Z,2.40
2022-12-26T12:39:02.233Z,1.75
2022-12-26T12:41:43.019Z,3.08
2022-12-26T12:44:14.890Z,5.60
2022-12-26T12:47:15.242Z,3.85
2022-12-26T12:49:51.087Z,3.83
2022-12-26T12:52:49.387Z,3.58
2022-12-26T12:55:24.207Z,3.53
2022-12-26T12:57:56.719Z,3.20
2022-12-26T13:00:27.746Z,4.25
2022-12-26T13:03:00.950Z,4.72
2022-12-26T13:05:53.688Z,2.95
2022-12-26T13:08:45.235Z,5.30
2022-12-26T13:11:36.381Z,2.92
2022-12-26T13:14:07.885Z,2.15
2022-12-26T13:16:43.919Z,2.53
2022-12-26T13:19:41.128Z,5.15
2022-12-26T13:22:14.502Z,3.40
2022-12-26T13:24:46.692Z,2.70
2022-12-26T13:27:20.751Z,3.45
2022-12-26T13:29:48.692Z,7.55
2022-12-26T13:32:27.896Z,3.70
2022-12-26T13:34:56.135Z,2.63
2022-12-26T13:37:37.753Z,3.58
2022-12-26T13:40:16.685Z,4.05
2022-12-26T13:43:15.346Z,3.75
2022-12-26T13:45:41.672Z,4.07
2022-12-26T13:48:17.099Z,5.18
2022-12-26T13:50:56.382Z,2.58
2022-12-26T13:53:25.857Z,3.13
2022-12-26T13:55:53.496Z,2.58
2022-12-26T13:58:26.485Z,2.92
2022-12-26T14:00:57.413Z,1.58
2022-12-26T14:03:36.747Z,1.50
2022-12-26T14:06:13.138Z,1.45
2022-12-26T14:09:08.099Z,1.42
2022-12-26T14:11:43.033Z,1.25
2022-12-26T14:14:24.592Z,2.10
2022-12-26T14:17:11.258Z,1.70
2022-12-26T14:20:03.756Z,1.48
2022-12-26T14:22:53.554Z,2.30
2022-12-26T14:25:27.086Z,4.22
2022-12-26T14:28:02.282Z,3.25
2022-12-26T14:30:30.871Z,1.17
2022-12-26T14:33:30.704Z,0.77
2022-12-26T14:36:26.643Z,3.53
2022-12-26T14:39:11.027Z,1.55
2022-12-26T14:42:24.678Z,2.40
2022-12-26T14:44:53.089Z,1.63
2022-12-26T14:47:42.702Z,1.10
2022-12-26T14:50:34.953Z,2.00
2022-12-26T14:53:20.154Z,2.15
2022-12-26T14:55:49.497Z,1.90
2022-12-26T14:58:30.800Z,1.52
2022-12-26T15:01:09.341Z,2.10
2022-12-26T15:04:20.505Z,5.55
2022-12-26T15:07:23.670Z,3.30
2022-12-26T15:10:05.165Z,2.97
2022-12-26T15:12:58.971Z,10.30
2022-12-26T15:15:33.584Z,1.13
2022-12-26T15:18:30.228Z,3.45
2022-12-26T15:21:27.162Z,1.70
2022-12-26T15:24:12.279Z,1.20
2022-12-26T15:27:08.664Z,1.25
2022-12-26T15:29:45.818Z,3.85
2022-12-26T15:32:24.652Z,2.92
2022-12-26T15:34:58.284Z,1.55
2022-12-26T15:37:38.721Z,2.60
2022-12-26T15:40:23.968Z,2.50
2022-12-26T15:42:56.014Z,3.78
2022-12-26T15:45:54.443Z,2.67
2022-12-26T15:48:50.751Z,1.60
2022-12-26T15:51:55.398Z,3.63
2022-12-26T15:54:56.944Z,3.53
2022-12-26T15:57:37.039Z,3.13
2022-12-26T16:00:15.057Z,4.93
2022-12-26T16:03:01.609Z,3.10
2022-12-26T16:05:32.403Z,1.30
2022-12-26T16:08:04.824Z,2.80
2022-12-26T16:10:33.601Z,2.78
2022-12-26T16:13:12.083Z,3.08
2022-12-26T16:15:55.601Z,2.25
2022-12-26T16:18:27.040Z,3.70
2022-12-26T16:21:14.201Z,4.20
2022-12-26T16:23:42.380Z,2.08
2022-12-26T16:26:21.461Z,4.72
2022-12-26T16:28:48.005Z,2.35
2022-12-26T16:31:21.302Z,2.90
2022-12-26T16:33:48.162Z,4.78
2022-12-26T16:36:23.532Z,3.88
2022-12-26T16:38:50.535Z,2.60
2022-12-26T16:41:24.058Z,3.92
2022-12-26T16:43:51.993Z,3.60
2022-12-26T16:46:19.028Z,2.60
2022-12-26T16:48:48.249Z,2.95
2022-12-26T16:51:47.240Z,2.58
2022-12-26T16:54:19.595Z,4.30
2022-12-26T16:56:51.321Z,1.10
2022-12-26T16:59:19.780Z,1.42
2022-12-26T17:01:49.319Z,1.38
2022-12-26T17:04:22.474Z,2.75
2022-12-26T17:06:51.351Z,0.98
2022-12-26T17:09:18.340Z,2.83
2022-12-26T17:12:01.862Z,1.10
2022-12-26T17:14:32.313Z,0.90
2022-12-26T17:17:00.705Z,1.13
2022-12-26T17:19:29.672Z,1.15
2022-12-26T17:22:14.245Z,1.05
2022-12-26T17:24:41.744Z,1.65
2022-12-26T17:27:25.683Z,1.17
2022-12-26T17:29:53.573Z,1.77
2022-12-26T17:32:25.677Z,3.70
2022-12-26T17:34:52.056Z,1.38
2022-12-26T17:37:22.011Z,1.65
2022-12-26T17:39:54.299Z,1.70
2022-12-26T17:42:23.162Z,3.42
2022-12-26T17:44:49.804Z,5.50
2022-12-26T17:47:19.882Z,2.65
2022-12-26T17:49:47.254Z,2.15
2022-12-26T17:52:15.361Z,3.67
2022-12-26T17:54:41.806Z,2.08
2022-12-26T17:57:16.812Z,1.65
2022-12-26T17:59:43.212Z,1.80
2022-12-26T18:02:10.509Z,3.53
2022-12-26T18:04:37.519Z,5.72
2022-12-26T18:07:04.560Z,2.95
2022-12-26T18:09:31.062Z,3.95
2022-12-26T18:11:57.459Z,1.98
2022-12-26T18:14:23.873Z,2.38
2022-12-26T18:16:51.473Z,2.33
2022-12-26T18:19:18.995Z,1.73
2022-12-26T18:21:45.458Z,2.60
2022-12-26T18:24:13.097Z,2.17
2022-12-26T18:26:39.555Z,3.30
2022-12-26T18:29:05.937Z,2.67
2022-12-26T18:31:32.419Z,1.60
2022-12-26T18:33:58.916Z,1.02
2022-12-26T18:36:30.159Z,1.25
2022-12-26T18:38:56.549Z,2.17
2022-12-26T18:41:22.937Z,1.77
2022-12-26T18:43:49.266Z,1.27
2022-12-26T18:46:17.657Z,1.30
2022-12-26T18:48:44.126Z,3.47
2022-12-26T18:51:10.495Z,2.38
2022-12-26T18:53:36.835Z,1.63
2022-12-26T18:56:03.398Z,2.28
2022-12-26T18:58:29.734Z,2.95
2022-12-26T19:00:56.089Z,4.47
2022-12-26T19:03:22.458Z,2.85
2022-12-26T19:05:48.833Z,4.47
2022-12-26T19:08:15.186Z,2.47
2022-12-26T19:10:44.160Z,2.78
2022-12-26T19:13:11.818Z,2.28
2022-12-26T19:15:40.068Z,1.33
2022-12-26T19:18:06.475Z,2.15
2022-12-26T19:20:32.992Z,3.25
2022-12-26T19:22:59.444Z,2.55
2022-12-26T19:25:26.321Z,2.03
2022-12-26T19:27:53.158Z,3.35
2022-12-26T19:30:20.507Z,2.80
2022-12-26T19:32:47.495Z,2.50
2022-12-26T19:35:14.653Z,2.10
2022-12-26T19:37:41.357Z,2.28
2022-12-26T19:40:09.136Z,1.60
2022-12-26T19:42:37.210Z,2.05
2022-12-26T19:45:08.397Z,3.22
2022-12-26T19:47:35.269Z,3.45
2022-12-26T19:50:02.599Z,3.03
2022-12-26T19:52:29.190Z,2.92
2022-12-26T19:54:55.707Z,1.80
2022-12-26T19:57:23.278Z,3.17
2022-12-26T19:59:51.785Z,3.03
2022-12-26T20:02:18.452Z,4.65
2022-12-26T20:04:45.168Z,1.80
2022-12-26T20:07:11.587Z,5.35
2022-12-26T20:09:38.015Z,3.53
2022-12-26T20:12:04.685Z,3.45
2022-12-26T20:14:32.529Z,4.15
2022-12-26T20:17:08.221Z,3.97
2022-12-26T20:19:35.675Z,3.33
2022-12-26T20:22:02.139Z,2.08
2022-12-26T20:24:28.544Z,3.22
2022-12-26T20:26:55.029Z,4.15
2022-12-26T20:29:21.403Z,2.70
2022-12-26T20:31:47.834Z,4.60
2022-12-26T20:34:14.238Z,3.33
2022-12-26T20:36:41.525Z,4.90
2022-12-26T20:39:12.454Z,2.75
2022-12-26T20:41:38.818Z,3.40
2022-12-26T20:44:05.409Z,2.78
2022-12-26T20:46:33.449Z,3.47
2022-12-26T20:49:01.750Z,3.00
2022-12-26T20:51:36.430Z,2.97
2022-12-26T20:54:04.229Z,1.80
2022-12-26T20:56:30.609Z,3.55
2022-12-26T20:58:59.226Z,2.40
2022-12-26T21:01:26.111Z,3.05
2022-12-26T21:03:53.648Z,2.55
2022-12-26T21:06:26.194Z,2.00
2022-12-26T21:08:53.253Z,1.77
2022-12-26T21:11:28.897Z,3.70
2022-12-26T21:14:01.103Z,5.18
2022-12-26T21:16:30.669Z,1.52
2022-12-26T21:18:57.789Z,3.53
2022-12-26T21:21:29.536Z,3.15
2022-12-26T21:23:58.990Z,2.92
2022-12-26T21:26:26.247Z,2.65
2022-12-26T21:29:00.114Z,4.90
2022-12-26T21:31:27.758Z,4.95
2022-12-26T21:33:58.671Z,2.92
2022-12-26T21:36:25.034Z,1.98
2022-12-26T21:38:52.744Z,4.43
2022-12-26T21:41:19.869Z,4.13
2022-12-26T21:43:46.311Z,1.50
2022-12-26T21:46:14.779Z,1.83
2022-12-26T21:48:47.104Z,2.35
2022-12-26T21:51:15.226Z,1.85
2022-12-26T21:53:42.131Z,2.35
2022-12-26T21:56:09.528Z,2.50
2022-12-26T21:58:55.930Z,2.60
2022-12-26T22:01:23.938Z,5.35
2022-12-26T22:04:09.218Z,1.88
2022-12-26T22:06:36.604Z,2.38
2022-12-26T22:09:04.241Z,2.83
2022-12-26T22:11:49.099Z,2.55
2022-12-26T22:14:15.578Z,2.30
2022-12-26T22:16:42.168Z,3.05
2022-12-26T22:19:09.087Z,5.20
2022-12-26T22:21:35.865Z,5.70
2022-12-26T22:24:02.260Z,3.85
2022-12-26T22:26:29.699Z,6.13
2022-12-26T22:28:57.189Z,2.88
2022-12-26T22:31:28.461Z,4.28
2022-12-26T22:34:01.852Z,2.05
2022-12-26T22:36:29.314Z,2.83
2022-12-26T22:38:56.079Z,6.78
2022-12-26T22:41:22.496Z,5.28
2022-12-26T22:43:48.973Z,2.63
2022-12-26T22:46:15.480Z,2.55
2022-12-26T22:48:42.061Z,5.43
2022-12-26T22:51:08.761Z,3.60
2022-12-26T22:53:36.822Z,2.83
2022-12-26T22:56:05.328Z,3.78
2022-12-26T22:58:32.432Z,3.63
2022-12-26T23:00:59.290Z,5.95
2022-12-26T23:03:26.520Z,4.05
2022-12-26T23:05:53.627Z,6.57
2022-12-26T23:08:25.774Z,2.88
2022-12-26T23:10:57.387Z,2.78
2022-12-26T23:13:24.251Z,2.88
2022-12-26T23:16:04.949Z,5.85
2022-12-26T23:18:52.267Z,5.82
2022-12-26T23:21:41.858Z,3.17
2022-12-26T23:24:11.689Z,2.55
2022-12-26T23:26:39.939Z,3.05
2022-12-26T23:29:25.389Z,2.60
2022-12-26T23:31:52.054Z,3.38
2022-12-26T23:34:18.446Z,4.35
2022-12-26T23:36:44.790Z,4.95
2022-12-26T23:39:11.147Z,3.67
2022-12-26T23:41:37.623Z,7.50
2022-12-26T23:44:04.871Z,7.65
2022-12-26T23:46:31.319Z,5.53
2022-12-26T23:48:57.803Z,5.68
2022-12-26T23:51:24.179Z,5.30
2022-12-26T23:53:50.541Z,2.45
2022-12-26T23:56:16.908Z,3.92
2022-12-26T23:58:43.287Z,4.75
